createdAt,value
2023-01-13T00:02:03.363Z,100247.88
2023-01-13T00:04:35.371Z,100264.50
2023-01-13T00:07:07.275Z,100253.81
2023-01-13T00:09:39.262Z,100262.63
2023-01-13T00:12:11.183Z,100264.31
2023-01-13T00:14:43.158Z,100290.56
2023-01-13T00:17:15.124Z,100263.38
2023-01-13T00:19:47.907Z,100267.81
2023-01-13T00:22:19.826Z,100261.59
2023-01-13T00:24:51.802Z,100239.44
2023-01-13T00:27:25.013Z,100256.16
2023-01-13T00:29:56.911Z,100241.19
2023-01-13T00:32:29.037Z,100232.34
2023-01-13T00:35:01.042Z,100223.56
2023-01-13T00:37:35.934Z,100232.41
2023-01-13T00:40:09.016Z,100218.31
2023-01-13T00:42:59.561Z,100198.00
2023-01-13T00:45:31.475Z,100209.47
2023-01-13T00:48:03.535Z,100211.19
2023-01-13T00:50:35.442Z,100202.44
2023-01-13T00:53:07.357Z,100196.22
2023-01-13T00:55:39.702Z,100211.16
2023-01-13T00:58:11.615Z,100199.69
2023-01-13T01:00:43.559Z,100211.94
2023-01-13T01:03:15.484Z,100200.41
2023-01-13T01:05:47.539Z,100209.16
2023-01-13T01:08:19.434Z,100217.84
2023-01-13T01:11:04.931Z,100218.69
2023-01-13T01:13:38.167Z,100206.31
2023-01-13T01:16:18.501Z,100222.13
2023-01-13T01:18:53.999Z,100222.84
2023-01-13T01:21:28.415Z,100226.56
2023-01-13T01:24:02.837Z,100223.91
2023-01-13T01:26:34.832Z,100225.66
2023-01-13T01:29:06.702Z,100179.63
2023-01-13T01:31:38.685Z,100216.81
2023-01-13T01:34:10.880Z,100223.03
2023-01-13T01:36:42.872Z,100227.38
2023-01-13T01:39:14.789Z,100229.72
2023-01-13T01:42:06.722Z,100218.38
2023-01-13T01:45:10.691Z,100234.94
2023-01-13T01:47:43.122Z,100241.09
2023-01-13T01:50:17.008Z,100234.94
2023-01-13T01:52:56.725Z,100225.28
2023-01-13T01:55:33.960Z,100209.25
2023-01-13T01:58:29.030Z,100226.06
2023-01-13T02:01:01.477Z,100236.50
2023-01-13T02:03:39.322Z,100227.63
2023-01-13T02:06:13.388Z,100227.75
2023-01-13T02:08:46.413Z,100218.97
2023-01-13T02:11:52.597Z,100221.41
2023-01-13T02:14:29.061Z,100228.50
2023-01-13T02:17:57.257Z,100217.88
2023-01-13T02:20:36.173Z,100213.44
2023-01-13T02:24:14.157Z,100222.19
2023-01-13T02:27:25.825Z,100224.59
2023-01-13T02:30:59.776Z,100230.72
2023-01-13T02:34:10.072Z,100228.78
2023-01-13T02:37:13.217Z,100234.97
2023-01-13T02:40:02.915Z,100219.94
2023-01-13T02:43:02.407Z,100221.78
2023-01-13T02:45:48.441Z,100212.13
2023-01-13T02:48:24.220Z,100182.91
2023-01-13T02:51:13.589Z,100198.06
2023-01-13T02:54:00.778Z,100205.84
2023-01-13T02:56:40.180Z,100206.06
2023-01-13T02:59:13.352Z,100202.53
2023-01-13T03:01:47.721Z,100192.84
2023-01-13T03:04:51.226Z,100197.31
2023-01-13T03:08:06.318Z,100191.16
2023-01-13T03:10:49.573Z,100191.25
2023-01-13T03:13:57.824Z,100185.03
2023-01-13T03:17:16.139Z,100198.06
2023-01-13T03:19:56.832Z,100188.56
2023-01-13T03:22:48.765Z,100196.50
2023-01-13T03:25:34.320Z,100175.53
2023-01-13T03:28:34.976Z,100182.56
2023-01-13T03:31:32.405Z,100181.75
2023-01-13T03:34:17.270Z,100171.91
2023-01-13T03:36:54.420Z,100183.59
2023-01-13T03:39:35.021Z,100182.63
2023-01-13T03:42:18.945Z,100152.47
2023-01-13T03:45:18.274Z,100192.38
2023-01-13T03:47:57.408Z,100186.34
2023-01-13T03:50:44.420Z,100187.22
2023-01-13T03:53:29.967Z,100199.41
2023-01-13T03:56:12.757Z,100178.31
2023-01-13T03:58:51.192Z,100167.75
2023-01-13T04:01:52.266Z,100181.69
2023-01-13T04:04:34.444Z,100167.50
2023-01-13T04:07:39.888Z,100178.94
2023-01-13T04:10:16.678Z,100180.69
2023-01-13T04:13:02.871Z,100188.41
2023-01-13T04:15:45.926Z,100186.34
2023-01-13T04:18:26.561Z,100191.59
2023-01-13T04:21:01.860Z,100188.72
2023-01-13T04:23:34.287Z,100198.41
2023-01-13T04:26:06.455Z,100200.94
2023-01-13T04:28:40.727Z,100205.19
2023-01-13T04:31:12.901Z,100221.72
2023-01-13T04:33:44.939Z,100206.00
2023-01-13T04:36:16.898Z,100214.59
2023-01-13T04:38:50.234Z,100224.19
2023-01-13T04:41:22.344Z,100211.09
2023-01-13T04:43:54.259Z,100205.03
2023-01-13T04:46:26.182Z,100204.13
2023-01-13T04:48:58.146Z,100212.06
2023-01-13T04:51:30.074Z,100206.91
2023-01-13T04:54:02.063Z,100206.91
2023-01-13T04:56:34.122Z,100207.75
2023-01-13T04:59:06.192Z,100196.13
2023-01-13T05:01:38.922Z,100201.66
2023-01-13T05:04:11.013Z,100201.66
2023-01-13T05:06:43.046Z,100188.31
2023-01-13T05:09:15.826Z,100184.09
2023-01-13T05:12:06.093Z,100190.19
2023-01-13T05:14:56.639Z,100187.59
2023-01-13T05:17:28.635Z,100165.25
2023-01-13T05:20:00.551Z,100196.22
2023-01-13T05:22:50.968Z,100185.78
2023-01-13T05:25:25.356Z,100180.25
2023-01-13T05:28:01.167Z,100176.81
2023-01-13T05:30:42.551Z,100154.44
2023-01-13T05:33:18.001Z,100199.56
2023-01-13T05:35:50.127Z,100195.97
2023-01-13T05:38:22.126Z,100192.44
2023-01-13T05:41:12.442Z,100196.84
2023-01-13T05:43:44.365Z,100190.72
2023-01-13T05:46:17.769Z,100206.38
2023-01-13T05:48:49.796Z,100209.78
2023-01-13T05:51:26.244Z,100209.78
2023-01-13T05:53:59.323Z,100221.06
2023-01-13T05:56:31.325Z,100211.50
2023-01-13T05:59:03.618Z,100219.25
2023-01-13T06:01:37.225Z,100212.06
2023-01-13T06:04:09.224Z,100217.47
2023-01-13T06:06:41.227Z,100210.31
2023-01-13T06:09:13.329Z,100234.75
2023-01-13T06:11:46.490Z,100235.53
2023-01-13T06:14:18.539Z,100227.69
2023-01-13T06:16:50.570Z,100233.00
2023-01-13T06:19:22.501Z,100234.72
2023-01-13T06:21:57.967Z,100228.41
2023-01-13T06:24:29.907Z,100247.91
2023-01-13T06:27:01.945Z,100257.53
2023-01-13T06:29:34.135Z,100250.44
2023-01-13T06:32:14.592Z,100239.59
2023-01-13T06:34:54.812Z,100263.44
2023-01-13T06:37:29.324Z,100275.53
2023-01-13T06:40:05.047Z,100269.34
2023-01-13T06:42:56.959Z,100266.63
2023-01-13T06:45:31.545Z,100264.09
2023-01-13T06:48:03.751Z,100271.19
2023-01-13T06:50:35.806Z,100262.47
2023-01-13T06:53:08.321Z,100267.81
2023-01-13T06:55:40.523Z,100256.34
2023-01-13T06:58:12.931Z,100236.81
2023-01-13T07:00:44.963Z,100238.91
2023-01-13T07:03:18.748Z,100208.72
2023-01-13T07:05:55.735Z,100265.44
2023-01-13T07:08:28.157Z,100237.97
2023-01-13T07:11:03.102Z,100266.31
2023-01-13T07:13:54.163Z,100268.88
2023-01-13T07:16:28.198Z,100276.72
2023-01-13T07:19:00.183Z,100242.94
2023-01-13T07:21:32.230Z,100270.56
2023-01-13T07:24:04.502Z,100287.09
2023-01-13T07:26:36.443Z,100278.28
2023-01-13T07:29:08.526Z,100293.06
2023-01-13T07:31:40.577Z,100279.88
2023-01-13T07:34:12.511Z,100286.84
2023-01-13T07:36:44.447Z,100273.59
2023-01-13T07:39:16.433Z,100288.38
2023-01-13T07:42:07.056Z,100298.00
2023-01-13T07:44:38.955Z,100268.56
2023-01-13T07:47:11.327Z,100294.41
2023-01-13T07:49:43.367Z,100290.81
2023-01-13T07:52:15.598Z,100299.50
2023-01-13T07:54:47.589Z,100280.41
2023-01-13T07:57:19.600Z,100310.88
2023-01-13T07:59:51.581Z,100303.00
2023-01-13T08:02:23.864Z,100300.41
2023-01-13T08:04:55.886Z,100310.81
2023-01-13T08:07:27.832Z,100308.31
2023-01-13T08:09:59.722Z,100309.91
2023-01-13T08:12:55.882Z,100310.88
2023-01-13T08:15:29.850Z,100292.94
2023-01-13T08:18:01.794Z,100307.19
2023-01-13T08:20:34.701Z,100314.31
2023-01-13T08:23:07.466Z,100317.75
2023-01-13T08:25:39.603Z,100308.25
2023-01-13T08:28:13.067Z,100316.84
2023-01-13T08:30:45.184Z,100325.53
2023-01-13T08:33:17.599Z,100310.72
2023-01-13T08:35:52.645Z,100309.97
2023-01-13T08:38:25.354Z,100319.56
2023-01-13T08:40:57.685Z,100320.50
2023-01-13T08:43:29.656Z,100319.78
2023-01-13T08:46:04.713Z,100278.13
2023-01-13T08:48:37.125Z,100318.78
2023-01-13T08:51:09.729Z,100325.31
2023-01-13T08:53:41.713Z,100318.53
2023-01-13T08:56:14.919Z,100329.00
2023-01-13T08:58:47.025Z,100332.63
2023-01-13T09:01:23.211Z,100325.66
2023-01-13T09:03:55.978Z,100337.13
2023-01-13T09:06:28.042Z,100320.78
2023-01-13T09:09:00.806Z,100326.13
2023-01-13T09:11:57.573Z,100325.31
2023-01-13T09:14:32.911Z,100333.34
2023-01-13T09:17:05.103Z,100328.09
2023-01-13T09:19:37.419Z,100343.88
2023-01-13T09:22:16.112Z,100343.00
2023-01-13T09:24:48.080Z,100331.53
2023-01-13T09:27:20.941Z,100344.66
2023-01-13T09:29:52.940Z,100356.19
2023-01-13T09:32:24.870Z,100368.56
2023-01-13T09:35:02.923Z,100374.78
2023-01-13T09:37:40.861Z,100354.50
2023-01-13T09:40:22.875Z,100371.25
2023-01-13T09:43:38.126Z,100394.06
2023-01-13T09:46:41.370Z,100372.28
2023-01-13T09:49:29.658Z,100375.88
2023-01-13T09:52:19.755Z,100389.91
2023-01-13T09:55:30.331Z,100394.16
2023-01-13T09:58:12.140Z,100379.47
2023-01-13T10:01:36.782Z,100377.34
2023-01-13T10:04:15.129Z,100392.50
2023-01-13T10:07:01.700Z,100395.13
2023-01-13T10:09:49.643Z,100388.00
2023-01-13T10:12:45.496Z,100369.72
2023-01-13T10:15:23.488Z,100394.59
2023-01-13T10:18:08.394Z,100395.56
2023-01-13T10:21:01.120Z,100399.50
2023-01-13T10:23:45.375Z,100410.53
2023-01-13T10:26:25.351Z,100404.69
2023-01-13T10:28:58.280Z,100406.47
2023-01-13T10:31:30.234Z,100407.34
2023-01-13T10:34:04.252Z,100406.34
2023-01-13T10:36:36.288Z,100413.22
2023-01-13T10:39:15.937Z,100425.09
2023-01-13T10:41:47.882Z,100423.97
2023-01-13T10:44:19.806Z,100440.41
2023-01-13T10:46:55.905Z,100448.91
2023-01-13T10:49:38.573Z,100449.44
2023-01-13T10:52:37.661Z,100450.56
2023-01-13T10:55:37.066Z,100462.72
2023-01-13T10:58:19.663Z,100458.91
2023-01-13T11:01:01.473Z,100467.59
2023-01-13T11:03:43.185Z,100440.97
2023-01-13T11:06:26.673Z,100459.72
2023-01-13T11:08:59.036Z,100435.94
2023-01-13T11:11:33.708Z,100457.31
2023-01-13T11:14:33.798Z,100460.00
2023-01-13T11:17:26.955Z,100492.22
2023-01-13T11:20:15.796Z,100450.97
2023-01-13T11:22:55.902Z,100474.97
2023-01-13T11:25:42.479Z,100442.97
2023-01-13T11:28:35.527Z,100461.81
2023-01-13T11:31:40.027Z,100474.19
2023-01-13T11:34:37.362Z,100474.47
2023-01-13T11:37:33.563Z,100462.72
2023-01-13T11:40:25.903Z,100471.03
2023-01-13T11:43:16.534Z,100481.69
2023-01-13T11:45:55.893Z,100486.13
2023-01-13T11:48:35.426Z,100484.34
2023-01-13T11:51:43.388Z,100491.38
2023-01-13T11:54:40.959Z,100483.50
2023-01-13T11:57:46.729Z,100490.59
2023-01-13T12:00:36.527Z,100498.63
2023-01-13T12:03:38.403Z,100492.44
2023-01-13T12:06:40.139Z,100497.63
2023-01-13T12:09:39.458Z,100507.22
2023-01-13T12:12:53.792Z,100507.19
2023-01-13T12:15:51.827Z,100498.63
2023-01-13T12:18:45.468Z,100516.06
2023-01-13T12:21:31.654Z,100500.31
2023-01-13T12:24:42.933Z,100520.59
2023-01-13T12:27:34.267Z,100525.19
2023-01-13T12:30:46.178Z,100529.44
2023-01-13T12:33:42.920Z,100518.22
2023-01-13T12:36:28.079Z,100520.13
2023-01-13T12:39:31.770Z,100523.56
2023-01-13T12:42:46.680Z,100518.41
2023-01-13T12:45:34.213Z,100536.72
2023-01-13T12:48:06.767Z,100529.00
2023-01-13T12:50:40.886Z,100534.97
2023-01-13T12:53:36.386Z,100500.41
2023-01-13T12:56:29.479Z,100560.47
2023-01-13T12:59:19.937Z,100550.81
2023-01-13T13:02:12.100Z,100551.72
2023-01-13T13:04:54.088Z,100560.44
2023-01-13T13:07:49.092Z,100571.78
2023-01-13T13:10:40.669Z,100574.41
2023-01-13T13:13:48.948Z,100581.34
2023-01-13T13:16:52.334Z,100587.44
2023-01-13T13:19:25.293Z,100601.50
2023-01-13T13:22:12.457Z,100583.06
2023-01-13T13:25:04.275Z,100588.41
2023-01-13T13:28:11.838Z,100612.94
2023-01-13T13:31:02.071Z,100595.50
2023-01-13T13:34:16.156Z,100587.28
2023-01-13T13:37:04.349Z,100587.88
2023-01-13T13:39:55.311Z,100593.03
2023-01-13T13:42:54.602Z,100602.00
2023-01-13T13:45:46.932Z,100623.06
2023-01-13T13:48:39.246Z,100616.94
2023-01-13T13:51:23.263Z,100636.22
2023-01-13T13:53:56.988Z,100625.53
2023-01-13T13:56:37.327Z,100638.00
2023-01-13T13:59:15.765Z,100640.03
2023-01-13T14:02:02.214Z,100643.47
2023-01-13T14:04:38.036Z,100659.81
2023-01-13T14:07:21.228Z,100658.91
2023-01-13T14:09:55.058Z,100659.00
2023-01-13T14:12:27.909Z,100663.34
2023-01-13T14:15:00.167Z,100676.38
2023-01-13T14:17:32.149Z,100684.69
2023-01-13T14:20:14.608Z,100671.38
2023-01-13T14:22:49.149Z,100671.19
2023-01-13T14:25:39.647Z,100700.06
2023-01-13T14:28:34.030Z,100701.41
2023-01-13T14:31:09.307Z,100702.41
2023-01-13T14:33:49.114Z,100701.28
2023-01-13T14:36:37.091Z,100719.94
2023-01-13T14:39:11.311Z,100719.22
2023-01-13T14:41:43.168Z,100722.75
2023-01-13T14:44:28.623Z,100725.19
2023-01-13T14:47:18.030Z,100713.59
2023-01-13T14:50:28.127Z,100723.19
2023-01-13T14:53:01.491Z,100741.63
2023-01-13T14:55:38.633Z,100718.63
2023-01-13T14:58:23.347Z,100760.88
2023-01-13T15:01:36.504Z,100764.09
2023-01-13T15:04:31.750Z,100753.53
2023-01-13T15:07:04.763Z,100773.00
2023-01-13T15:09:42.165Z,100782.69
2023-01-13T15:12:36.269Z,100781.78
2023-01-13T15:15:37.642Z,100778.63
2023-01-13T15:18:15.858Z,100794.97
2023-01-13T15:20:47.912Z,100807.22
2023-01-13T15:23:20.990Z,100813.38
2023-01-13T15:25:54.692Z,100822.25
2023-01-13T15:28:27.996Z,100809.09
2023-01-13T15:31:01.784Z,100792.94
2023-01-13T15:33:33.831Z,100822.97
2023-01-13T15:36:17.641Z,100797.66
2023-01-13T15:38:50.674Z,100792.69
2023-01-13T15:41:41.560Z,100819.28
2023-01-13T15:44:34.221Z,100818.38
2023-01-13T15:47:09.743Z,100833.94
2023-01-13T15:49:46.218Z,100832.22
2023-01-13T15:52:23.276Z,100837.47
2023-01-13T15:54:55.632Z,100843.72
2023-01-13T15:57:32.738Z,100849.91
2023-01-13T16:00:14.688Z,100859.56
2023-01-13T16:02:47.044Z,100859.19
2023-01-13T16:05:19.096Z,100864.28
2023-01-13T16:07:51.259Z,100865.94
2023-01-13T16:10:28.049Z,100859.78
2023-01-13T16:13:00.210Z,100869.34
2023-01-13T16:15:33.559Z,100858.84
2023-01-13T16:18:05.659Z,100865.19
2023-01-13T16:20:37.712Z,100877.44
2023-01-13T16:23:10.889Z,100869.41
2023-01-13T16:25:45.023Z,100871.50
2023-01-13T16:28:24.488Z,100884.59
2023-01-13T16:30:56.479Z,100870.28
2023-01-13T16:33:28.469Z,100898.63
2023-01-13T16:36:10.206Z,100912.63
2023-01-13T16:38:44.374Z,100901.16
2023-01-13T16:41:16.751Z,100900.47
2023-01-13T16:43:49.127Z,100881.69
2023-01-13T16:46:28.517Z,100896.00
2023-01-13T16:49:05.919Z,100903.78
2023-01-13T16:51:37.889Z,100903.09
2023-01-13T16:54:09.890Z,100915.50
2023-01-13T16:56:41.989Z,100907.41
2023-01-13T16:59:14.965Z,100918.91
2023-01-13T17:01:47.114Z,100923.25
2023-01-13T17:04:23.466Z,100920.41
2023-01-13T17:07:10.928Z,100909.78
2023-01-13T17:09:42.975Z,100936.38
2023-01-13T17:12:15.188Z,100939.00
2023-01-13T17:14:47.145Z,100942.44
2023-01-13T17:17:26.662Z,100936.28
2023-01-13T17:19:58.638Z,100944.25
2023-01-13T17:22:30.883Z,100950.19
2023-01-13T17:25:03.522Z,100950.97
2023-01-13T17:27:35.738Z,100950.78
2023-01-13T17:30:09.377Z,100953.28
2023-01-13T17:32:42.249Z,100953.81
2023-01-13T17:35:18.912Z,100946.72
2023-01-13T17:37:54.417Z,100971.44
2023-01-13T17:40:26.387Z,100979.97
2023-01-13T17:42:58.443Z,100981.66
2023-01-13T17:45:30.546Z,100987.59
2023-01-13T17:48:02.521Z,100966.09
2023-01-13T17:50:34.969Z,100992.06
2023-01-13T17:53:07.027Z,100982.03
2023-01-13T17:55:39.029Z,100997.19
2023-01-13T17:58:10.943Z,100990.97
2023-01-13T18:00:42.937Z,100993.41
2023-01-13T18:03:16.873Z,100959.25
2023-01-13T18:05:49.433Z,100977.03
2023-01-13T18:08:23.655Z,101004.72
2023-01-13T18:10:57.886Z,101016.88
2023-01-13T18:13:31.639Z,100992.88
2023-01-13T18:16:12.169Z,101012.34
2023-01-13T18:18:47.212Z,100964.91
2023-01-13T18:21:46.273Z,101001.28
2023-01-13T18:24:36.893Z,101009.19
2023-01-13T18:27:23.833Z,101014.75
2023-01-13T18:29:59.174Z,101025.25
2023-01-13T18:32:33.450Z,101010.03
2023-01-13T18:35:10.416Z,101025.25
2023-01-13T18:37:43.102Z,101030.50
2023-01-13T18:40:15.225Z,101018.84
2023-01-13T18:42:54.592Z,101031.47
2023-01-13T18:45:32.143Z,101030.63
2023-01-13T18:48:05.951Z,101041.66
2023-01-13T18:50:37.904Z,101055.88
2023-01-13T18:53:09.878Z,101059.41
2023-01-13T18:55:43.334Z,101069.91
2023-01-13T18:58:15.673Z,101064.66
2023-01-13T19:00:47.668Z,101077.88
2023-01-13T19:03:29.887Z,101091.81
2023-01-13T19:06:04.796Z,101103.06
2023-01-13T19:08:37.296Z,101088.81
2023-01-13T19:11:09.253Z,101087.78
2023-01-13T19:13:41.180Z,101092.13
2023-01-13T19:16:13.449Z,101089.28
2023-01-13T19:18:46.455Z,101095.16
2023-01-13T19:21:18.665Z,101053.03
2023-01-13T19:23:54.761Z,101099.09
2023-01-13T19:26:26.883Z,101107.78
2023-01-13T19:28:58.839Z,101106.88
2023-01-13T19:31:31.299Z,101095.16
2023-01-13T19:34:03.306Z,101103.03
2023-01-13T19:36:35.305Z,101107.97
2023-01-13T19:39:08.343Z,101112.31
2023-01-13T19:41:58.737Z,101122.88
2023-01-13T19:44:49.627Z,101139.25
2023-01-13T19:47:21.734Z,101133.97
2023-01-13T19:49:53.720Z,101137.31
2023-01-13T19:52:25.699Z,101134.66
2023-01-13T19:54:57.786Z,101125.81
2023-01-13T19:57:30.053Z,101123.00
2023-01-13T20:00:02.830Z,101128.22
2023-01-13T20:02:36.687Z,101135.41
2023-01-13T20:05:09.361Z,101138.03
2023-01-13T20:07:41.284Z,101140.69
2023-01-13T20:10:13.544Z,101160.06
2023-01-13T20:12:45.674Z,101161.88
2023-01-13T20:15:17.853Z,101170.56
2023-01-13T20:17:50.122Z,101172.38
2023-01-13T20:20:22.522Z,101165.59
2023-01-13T20:22:54.574Z,101171.75
2023-01-13T20:25:28.917Z,101175.34
2023-01-13T20:28:02.285Z,101177.88
2023-01-13T20:30:34.283Z,101176.41
2023-01-13T20:33:06.318Z,101173.78
2023-01-13T20:35:38.323Z,101173.59
2023-01-13T20:38:10.370Z,101174.44
2023-01-13T20:40:42.340Z,101183.25
2023-01-13T20:43:14.296Z,101186.56
2023-01-13T20:45:46.253Z,101185.75
2023-01-13T20:48:18.266Z,101190.16
2023-01-13T20:50:55.186Z,101182.22
2023-01-13T20:53:27.231Z,101195.31
2023-01-13T20:55:59.269Z,101182.97
2023-01-13T20:58:31.187Z,101207.66
2023-01-13T21:01:03.385Z,101194.72
2023-01-13T21:03:35.493Z,101203.53
2023-01-13T21:06:08.313Z,101203.47
2023-01-13T21:08:40.255Z,101201.84
2023-01-13T21:11:14.907Z,101205.13
2023-01-13T21:14:05.243Z,101222.50
2023-01-13T21:16:37.350Z,101225.94
2023-01-13T21:19:10.682Z,101226.84
2023-01-13T21:21:42.811Z,101223.31
2023-01-13T21:24:14.876Z,101242.47
2023-01-13T21:26:49.166Z,101248.53
2023-01-13T21:29:21.407Z,101253.03
2023-01-13T21:31:54.523Z,101235.22
2023-01-13T21:47:38.696Z,101245.50
2023-01-13T21:50:13.111Z,101259.78
2023-01-13T21:52:48.032Z,101255.91
2023-01-13T21:55:29.290Z,101249.66
2023-01-13T21:58:13.659Z,101255.38
2023-01-13T22:00:46.320Z,101212.88
2023-01-13T22:03:21.445Z,101255.31
2023-01-13T22:05:55.738Z,101253.66
2023-01-13T22:08:27.958Z,101258.22
2023-01-13T22:11:03.246Z,101255.47
2023-01-13T22:13:53.932Z,101268.03
2023-01-13T22:16:26.422Z,101269.00
2023-01-13T22:18:58.438Z,101274.09
2023-01-13T22:21:30.416Z,101291.47
2023-01-13T22:24:02.584Z,101285.31
2023-01-13T22:26:34.742Z,101286.22
2023-01-13T22:29:06.849Z,101289.81
2023-01-13T22:31:38.906Z,101288.91
2023-01-13T22:34:12.903Z,101280.84
2023-01-13T22:36:44.900Z,101295.03
2023-01-13T22:39:16.881Z,101297.75
2023-01-13T22:41:48.836Z,101284.41
2023-01-13T22:44:21.993Z,101298.47
2023-01-13T22:46:54.050Z,101262.38
2023-01-13T22:49:26.110Z,101301.94
2023-01-13T22:51:58.072Z,101305.38
2023-01-13T22:54:30.080Z,101298.31
2023-01-13T22:57:02.014Z,101302.84
2023-01-13T22:59:33.989Z,101310.75
2023-01-13T23:02:06.128Z,101309.84
2023-01-13T23:04:38.148Z,101300.88
2023-01-13T23:07:10.054Z,101322.03
2023-01-13T23:09:41.972Z,101320.97
2023-01-13T23:12:13.939Z,101324.66
2023-01-13T23:14:45.881Z,101321.22
2023-01-13T23:17:18.299Z,101316.88
2023-01-13T23:19:50.244Z,101328.13
2023-01-13T23:22:22.216Z,101324.50
2023-01-13T23:24:54.165Z,101317.66
2023-01-13T23:27:26.058Z,101310.44
2023-01-13T23:29:58.029Z,101265.66
2023-01-13T23:32:30.015Z,101298.47
2023-01-13T23:35:03.378Z,101300.13
2023-01-13T23:37:35.373Z,101286.44
2023-01-13T23:40:09.580Z,101296.56
2023-01-13T23:42:41.496Z,101301.78
2023-01-13T23:45:13.457Z,101282.06
2023-01-13T23:47:45.383Z,101294.59
2023-01-13T23:50:17.690Z,101298.16
2023-01-13T23:52:49.637Z,101295.34
2023-01-13T23:55:21.815Z,101295.09
2023-01-13T23:57:53.818Z,101299.19
